Time;durP1;ratioP1;P1;durP2;ratioP2;P2;SDS_P1;SDS_P2;PMS_P1;PMS_P2;Temp;Humidity;BMP_temperature;BMP_pressure;BME280_temperature;BME280_humidity;BME280_pressure;Samples;Min_cycle;Max_cycle;Signal;HPM_P1;HPM_P2
2022/04/24 00:01:41;;;;;;;4.37;3.97;;;9.70;99.90;;;;;;5037044;28;20658;-77
2022/04/24 00:04:07;;;;;;;5.10;4.13;;;9.70;99.90;;;;;;5036598;28;20214;-77
2022/04/24 00:06:33;;;;;;;4.40;4.00;;;9.70;99.90;;;;;;5036805;28;20180;-77
2022/04/24 00:08:58;;;;;;;4.73;4.10;;;9.60;99.90;;;;;;5020341;28;20710;-77
2022/04/24 00:11:25;;;;;;;4.27;3.87;;;9.70;99.90;;;;;;5036638;28;20551;-77
2022/04/24 00:13:50;;;;;;;5.07;4.07;;;9.70;99.90;;;;;;5036549;28;20205;-77
2022/04/24 00:16:16;;;;;;;4.80;4.10;;;9.70;99.90;;;;;;5036336;28;20212;-77
2022/04/24 00:18:42;;;;;;;4.57;3.80;;;9.70;99.90;;;;;;5020109;28;20181;-76
2022/04/24 00:21:08;;;;;;;4.20;3.53;;;9.70;99.90;;;;;;5020381;28;20275;-77
2022/04/24 00:23:34;;;;;;;4.47;4.00;;;9.70;99.90;;;;;;5052890;28;20197;-77
2022/04/24 00:25:59;;;;;;;5.20;4.10;;;9.70;99.90;;;;;;5036920;28;20192;-77
2022/04/24 00:28:26;;;;;;;4.50;4.10;;;9.70;99.90;;;;;;5036623;28;20183;-77
2022/04/24 00:30:51;;;;;;;4.37;3.97;;;9.60;99.90;;;;;;5036853;28;20191;-77
2022/04/24 00:33:17;;;;;;;4.27;3.83;;;9.60;99.90;;;;;;5019940;28;20200;-77
2022/04/24 00:35:43;;;;;;;4.80;4.30;;;9.60;99.90;;;;;;5036782;28;20278;-77
2022/04/24 00:38:09;;;;;;;5.20;4.07;;;9.60;99.90;;;;;;5036442;28;20215;-77
2022/04/24 00:40:35;;;;;;;4.40;4.00;;;9.50;99.90;;;;;;5019826;28;20192;-77
2022/04/24 00:43:00;;;;;;;5.53;4.20;;;9.50;99.90;;;;;;5036231;28;20290;-77
2022/04/24 00:45:26;;;;;;;4.70;4.20;;;9.50;99.90;;;;;;5036354;28;20176;-77
2022/04/24 00:47:52;;;;;;;5.37;4.70;;;9.50;99.90;;;;;;5019514;28;20188;-77
2022/04/24 00:50:18;;;;;;;5.93;4.60;;;9.50;99.90;;;;;;5036317;28;20180;-77
2022/04/24 00:52:45;;;;;;;4.90;4.40;;;9.40;99.90;;;;;;5035835;28;20196;-77
2022/04/24 00:55:11;;;;;;;4.80;4.10;;;9.40;99.90;;;;;;5019499;28;20185;-77
2022/04/24 00:57:37;;;;;;;5.20;4.60;;;9.40;99.90;;;;;;5019646;28;20265;-77
2022/04/24 01:00:03;;;;;;;5.00;4.50;;;9.30;99.90;;;;;;5036288;28;20172;-77
2022/04/24 01:04:57;;;;;;;5.10;4.23;;;9.30;99.90;;;;;;5051701;28;20212;-74
2022/04/24 01:07:23;;;;;;;4.83;4.27;;;9.20;99.90;;;;;;5002901;28;20622;-74
2022/04/24 01:09:49;;;;;;;4.80;4.40;;;9.20;99.90;;;;;;5019067;28;20662;-74
2022/04/24 01:12:14;;;;;;;4.53;4.03;;;9.10;99.90;;;;;;5018577;28;20566;-74
2022/04/24 01:14:40;;;;;;;4.83;4.43;;;9.10;99.90;;;;;;5051608;28;20199;-75
2022/04/24 01:17:06;;;;;;;5.63;4.57;;;9.10;99.90;;;;;;5018950;28;20648;-75
2022/04/24 01:19:32;;;;;;;4.60;4.17;;;9.10;99.90;;;;;;5018615;28;20183;-75
2022/04/24 01:21:58;;;;;;;4.83;4.33;;;9.10;99.90;;;;;;5018405;28;20552;-74
2022/04/24 01:24:26;;;;;;;5.00;4.20;;;9.20;99.90;;;;;;5018589;28;20204;-74
2022/04/24 01:26:52;;;;;;;4.80;4.33;;;9.20;99.90;;;;;;5002497;28;20644;-74
2022/04/24 01:29:18;;;;;;;5.17;4.53;;;9.20;99.90;;;;;;5018670;28;20215;-74
2022/04/24 01:31:45;;;;;;;4.80;4.30;;;9.10;99.90;;;;;;5018507;28;20222;-74
2022/04/24 01:34:12;;;;;;;5.73;5.07;;;9.10;99.90;;;;;;5002181;28;20206;-74
2022/04/24 01:36:38;;;;;;;5.23;4.73;;;8.90;99.90;;;;;;5018526;28;20219;-74
2022/04/24 01:39:07;;;;;;;8.00;5.10;;;8.80;99.90;;;;;;5018326;28;20177;-74
2022/04/24 01:41:33;;;;;;;5.67;4.90;;;8.70;99.90;;;;;;5034844;28;20202;-74
2022/04/24 01:43:59;;;;;;;5.77;5.07;;;8.70;99.90;;;;;;5018108;28;20277;-74
2022/04/24 01:46:25;;;;;;;5.70;4.90;;;8.70;99.90;;;;;;5002222;28;20235;-74
2022/04/24 01:48:51;;;;;;;5.07;4.57;;;8.80;99.90;;;;;;5034648;28;20190;-74
2022/04/24 01:51:16;;;;;;;5.37;4.83;;;8.90;99.90;;;;;;5034538;28;20184;-74
2022/04/24 01:53:43;;;;;;;5.33;4.73;;;8.90;99.90;;;;;;5017959;28;20199;-75
2022/04/24 01:56:09;;;;;;;6.77;4.90;;;9.00;99.90;;;;;;5018246;28;20190;-74
2022/04/24 01:58:36;;;;;;;6.23;5.00;;;9.00;99.90;;;;;;5018372;28;20184;-74
2022/04/24 02:01:02;;;;;;;8.63;4.93;;;9.00;99.90;;;;;;5018279;28;20178;-74
2022/04/24 02:03:29;;;;;;;5.67;4.60;;;9.00;99.90;;;;;;5017688;28;20243;-74
2022/04/24 02:05:56;;;;;;;7.13;4.80;;;9.10;99.90;;;;;;5017895;28;20177;-74
2022/04/24 02:08:22;;;;;;;5.40;4.83;;;9.10;99.90;;;;;;5052153;28;20174;-74
2022/04/24 02:10:49;;;;;;;5.10;4.60;;;8.90;99.90;;;;;;5034573;28;20182;-74
2022/04/24 02:13:15;;;;;;;5.73;4.90;;;8.90;99.90;;;;;;5033631;28;20197;-74
2022/04/24 02:15:40;;;;;;;5.40;4.87;;;8.90;99.90;;;;;;5017426;28;20184;-74
2022/04/24 02:18:06;;;;;;;5.60;4.90;;;8.90;99.90;;;;;;5052157;28;20294;-74
2022/04/24 02:20:32;;;;;;;6.33;5.20;;;8.80;99.90;;;;;;5034027;28;20188;-74
2022/04/24 02:22:58;;;;;;;5.27;4.77;;;8.70;99.90;;;;;;5034035;28;20189;-74
2022/04/24 02:25:25;;;;;;;5.23;4.73;;;8.60;99.90;;;;;;5034243;28;20174;-74
2022/04/24 02:27:53;;;;;;;7.43;4.77;;;8.50;99.90;;;;;;5034236;28;20230;-74
2022/04/24 02:30:20;;;;;;;5.17;4.67;;;8.40;99.90;;;;;;5033967;28;20210;-74
2022/04/24 02:32:46;;;;;;;5.40;4.57;;;8.30;99.90;;;;;;5033764;28;20181;-76
2022/04/24 02:35:12;;;;;;;4.87;4.37;;;8.30;99.90;;;;;;5001259;28;20191;-77
2022/04/24 02:37:38;;;;;;;6.17;4.97;;;8.30;99.90;;;;;;5034419;28;20205;-77
2022/04/24 02:40:09;;;;;;;5.50;5.00;;;8.30;99.90;;;;;;5001319;28;20189;-77
2022/04/24 02:42:38;;;;;;;6.17;4.77;;;8.40;99.90;;;;;;5002402;28;20200;-77
2022/04/24 02:45:05;;;;;;;6.40;5.03;;;8.30;99.90;;;;;;5033927;28;20623;-77
2022/04/24 02:47:30;;;;;;;5.67;5.07;;;8.40;99.90;;;;;;5017524;28;20196;-77
2022/04/24 02:49:56;;;;;;;5.93;5.33;;;8.40;99.90;;;;;;5033907;28;20178;-77
2022/04/24 02:52:21;;;;;;;5.70;5.20;;;8.40;99.90;;;;;;5000910;28;20189;-77
2022/04/24 02:54:47;;;;;;;5.73;5.03;;;8.40;99.90;;;;;;5001033;28;20300;-77
2022/04/24 02:57:13;;;;;;;6.73;5.17;;;8.30;99.90;;;;;;5001174;28;20304;-77
2022/04/24 02:59:42;;;;;;;5.60;5.10;;;8.20;99.90;;;;;;5000965;28;20184;-77
2022/04/24 03:02:09;;;;;;;6.87;5.17;;;8.20;99.90;;;;;;5051447;28;20162;-77
2022/04/24 03:04:35;;;;;;;5.87;5.13;;;8.20;99.90;;;;;;5017162;28;20305;-77
2022/04/24 03:07:01;;;;;;;5.97;4.97;;;8.30;99.90;;;;;;5017534;28;20249;-77
2022/04/24 03:09:27;;;;;;;5.13;4.63;;;8.30;99.90;;;;;;5033717;28;20269;-77
2022/04/24 03:11:52;;;;;;;5.43;4.93;;;8.30;99.90;;;;;;5017126;28;20181;-77
2022/04/24 03:14:18;;;;;;;6.07;5.47;;;8.20;99.90;;;;;;5016935;28;20687;-77
2022/04/24 03:16:43;;;;;;;5.80;5.20;;;8.20;99.90;;;;;;5000667;28;20215;-77
2022/04/24 03:19:09;;;;;;;6.10;5.23;;;8.20;99.90;;;;;;5017710;28;20178;-77
2022/04/24 03:21:35;;;;;;;6.97;5.53;;;8.30;99.90;;;;;;5001048;28;20214;-77
2022/04/24 03:24:00;;;;;;;5.97;5.37;;;8.20;99.90;;;;;;5001023;28;20579;-77
2022/04/24 03:26:26;;;;;;;6.53;5.63;;;8.30;99.90;;;;;;5036971;28;20197;-77
2022/04/24 03:28:51;;;;;;;6.07;5.40;;;8.30;99.90;;;;;;5004416;28;20607;-77
2022/04/24 03:31:17;;;;;;;6.50;5.70;;;8.30;99.90;;;;;;5004404;28;20189;-77
2022/04/24 03:33:43;;;;;;;6.20;5.60;;;8.40;99.90;;;;;;5020651;28;20237;-77
2022/04/24 03:36:09;;;;;;;6.40;5.80;;;8.50;99.90;;;;;;5037091;28;20231;-77
2022/04/24 03:38:34;;;;;;;6.90;6.00;;;8.50;99.90;;;;;;5037067;28;20271;-77
2022/04/24 03:41:01;;;;;;;6.00;5.40;;;8.50;99.90;;;;;;5037082;28;20170;-77
2022/04/24 03:43:27;;;;;;;6.67;6.00;;;8.60;99.90;;;;;;5020526;28;20190;-77
2022/04/24 03:45:52;;;;;;;7.43;6.60;;;8.50;99.90;;;;;;5036829;28;20181;-77
2022/04/24 03:48:18;;;;;;;6.57;5.90;;;8.50;99.90;;;;;;5036961;28;20178;-77
2022/04/24 03:50:43;;;;;;;7.00;6.20;;;8.60;99.90;;;;;;5004333;28;20178;-77
2022/04/24 03:53:10;;;;;;;6.93;6.20;;;8.50;99.90;;;;;;5003933;28;20578;-77
2022/04/24 03:55:35;;;;;;;7.70;6.57;;;8.40;99.90;;;;;;5020337;28;20270;-77
2022/04/24 03:58:01;;;;;;;6.97;6.27;;;8.30;99.90;;;;;;5020204;28;20662;-77
2022/04/24 04:00:26;;;;;;;7.40;6.27;;;8.30;99.90;;;;;;5003775;28;20182;-77
2022/04/24 04:02:53;;;;;;;7.97;6.80;;;8.20;99.90;;;;;;5019952;28;20213;-77
2022/04/24 04:05:20;;;;;;;7.30;6.50;;;8.10;99.90;;;;;;5020156;28;20224;-77
2022/04/24 04:07:46;;;;;;;7.37;6.50;;;8.10;99.90;;;;;;5036504;28;20633;-77
2022/04/24 04:10:12;;;;;;;7.17;6.47;;;8.10;99.90;;;;;;5020172;28;20704;-77
2022/04/24 04:12:38;;;;;;;7.60;6.60;;;8.10;99.90;;;;;;5036142;28;20190;-77
2022/04/24 04:15:05;;;;;;;7.93;6.67;;;8.10;99.90;;;;;;5036048;28;20209;-77
2022/04/24 04:17:30;;;;;;;7.07;6.37;;;8.10;99.90;;;;;;5003588;28;20201;-77
2022/04/24 04:19:56;;;;;;;7.73;6.80;;;8.00;99.90;;;;;;5019948;28;20181;-77
2022/04/24 04:22:22;;;;;;;11.87;6.93;;;8.00;99.90;;;;;;5003395;28;20723;-77
2022/04/24 04:24:47;;;;;;;7.53;6.60;;;8.00;99.90;;;;;;5019772;28;20193;-77
2022/04/24 04:27:13;;;;;;;8.13;6.67;;;8.10;99.90;;;;;;5019750;28;20272;-77
2022/04/24 04:29:38;;;;;;;7.60;6.70;;;8.10;99.90;;;;;;5019534;28;20239;-77
2022/04/24 04:32:05;;;;;;;8.47;7.03;;;8.00;99.90;;;;;;5003282;28;20206;-77
2022/04/24 04:34:30;;;;;;;8.10;7.30;;;8.10;99.90;;;;;;5053880;28;20190;-77
2022/04/24 04:36:56;;;;;;;8.47;7.17;;;8.10;99.90;;;;;;5002737;28;20204;-77
2022/04/24 04:39:22;;;;;;;8.00;7.13;;;8.20;99.90;;;;;;5019447;28;20844;-77
2022/04/24 04:41:47;;;;;;;8.07;7.27;;;8.20;99.90;;;;;;5003177;28;20205;-77
2022/04/24 04:44:13;;;;;;;7.93;7.13;;;8.30;99.90;;;;;;5002862;28;20667;-77
2022/04/24 04:46:38;;;;;;;8.20;7.30;;;8.30;99.90;;;;;;5002944;28;20185;-77
2022/04/24 04:49:04;;;;;;;8.53;7.23;;;8.30;99.90;;;;;;5003151;28;20170;-77
2022/04/24 04:51:30;;;;;;;8.70;7.73;;;8.30;99.90;;;;;;5036021;28;20201;-77
2022/04/24 04:53:56;;;;;;;8.20;6.87;;;8.40;99.90;;;;;;5018930;28;20197;-77
2022/04/24 04:56:22;;;;;;;8.83;7.93;;;8.50;99.90;;;;;;5035621;28;20198;-77
2022/04/24 04:58:48;;;;;;;8.50;7.60;;;8.40;99.90;;;;;;5035520;28;20170;-77
2022/04/24 05:01:14;;;;;;;8.87;7.73;;;8.50;99.90;;;;;;5053525;28;20252;-77
2022/04/24 05:03:39;;;;;;;8.60;7.67;;;8.50;99.90;;;;;;5002345;28;20209;-77
2022/04/24 05:06:05;;;;;;;8.43;7.57;;;8.50;99.90;;;;;;5002773;28;20183;-77
2022/04/24 05:08:31;;;;;;;9.20;8.20;;;8.50;99.90;;;;;;5019306;28;20213;-77
2022/04/24 05:10:57;;;;;;;9.17;8.17;;;8.50;99.90;;;;;;5035481;28;20587;-77
2022/04/24 05:13:22;;;;;;;10.70;8.10;;;8.50;99.90;;;;;;5035033;28;20633;-77
2022/04/24 05:15:48;;;;;;;9.53;8.40;;;8.60;99.90;;;;;;5036404;28;20194;-77
2022/04/24 05:18:14;;;;;;;10.10;8.50;;;8.60;99.90;;;;;;5019230;28;20210;-78
2022/04/24 05:20:39;;;;;;;9.37;7.93;;;8.70;99.90;;;;;;5002571;28;20167;-77
2022/04/24 05:23:07;;;;;;;9.67;8.43;;;8.70;99.90;;;;;;5018896;28;20189;-79
2022/04/24 05:25:33;;;;;;;9.63;8.50;;;8.70;99.90;;;;;;5035230;28;20178;-78
2022/04/24 05:28:00;;;;;;;11.07;8.70;;;8.70;99.90;;;;;;5018469;28;20206;-78
2022/04/24 05:30:28;;;;;;;10.57;8.33;;;8.70;99.90;;;;;;5035296;28;20679;-78
2022/04/24 05:32:53;;;;;;;9.10;8.20;;;8.80;99.90;;;;;;5034662;28;20197;-78
2022/04/24 05:35:20;;;;;;;10.97;9.10;;;8.90;99.90;;;;;;5018389;28;20185;-78
2022/04/24 05:37:46;;;;;;;10.60;8.63;;;8.90;99.90;;;;;;5018476;28;20364;-78
2022/04/24 05:40:11;;;;;;;10.40;8.87;;;8.90;99.90;;;;;;5018506;28;20190;-78
2022/04/24 05:42:54;;;;;;;10.27;9.07;;;8.90;99.90;;;;;;5018090;28;20181;-77
2022/04/24 05:45:27;;;;;;;10.23;8.87;;;8.90;99.90;;;;;;5035601;28;20169;-77
2022/04/24 05:47:54;;;;;;;10.03;8.87;;;8.90;99.90;;;;;;5034153;28;20174;-77
2022/04/24 05:50:23;;;;;;;10.33;9.13;;;8.90;99.90;;;;;;5034465;28;20267;-78
2022/04/24 05:52:49;;;;;;;12.20;9.47;;;8.80;99.90;;;;;;5034211;28;20203;-77
2022/04/24 05:55:14;;;;;;;10.53;8.70;;;8.90;99.90;;;;;;5034687;28;20170;-77
2022/04/24 05:57:41;;;;;;;10.47;8.77;;;8.80;99.90;;;;;;5001644;28;20219;-77
2022/04/24 06:00:12;;;;;;;11.10;9.43;;;8.80;99.90;;;;;;5001996;28;20195;-77
2022/04/24 06:02:39;;;;;;;10.50;9.40;;;8.70;99.90;;;;;;5051906;28;20230;-77
2022/04/24 06:05:06;;;;;;;10.27;8.67;;;8.80;99.90;;;;;;5018228;28;20667;-78
2022/04/24 06:07:31;;;;;;;10.70;9.33;;;8.80;99.90;;;;;;5018033;28;20186;-78
2022/04/24 06:09:57;;;;;;;9.80;8.77;;;8.70;99.90;;;;;;5001438;28;20181;-77
2022/04/24 06:12:22;;;;;;;11.37;9.53;;;8.80;99.90;;;;;;5001409;28;20271;-78
2022/04/24 06:14:48;;;;;;;11.40;9.47;;;8.80;99.90;;;;;;5034322;28;20228;-77
2022/04/24 06:17:14;;;;;;;10.83;9.10;;;8.90;99.90;;;;;;5001569;28;20204;-77
2022/04/24 06:19:39;;;;;;;11.20;9.70;;;9.00;99.90;;;;;;5017702;28;20181;-77
2022/04/24 06:22:05;;;;;;;13.97;9.70;;;9.10;99.90;;;;;;5017673;28;20226;-77
2022/04/24 06:24:31;;;;;;;11.00;9.33;;;9.00;99.90;;;;;;5017633;28;20198;-77
2022/04/24 06:26:56;;;;;;;12.70;9.80;;;9.10;99.90;;;;;;5051896;28;20667;-77
2022/04/24 06:29:22;;;;;;;12.30;9.77;;;9.00;99.90;;;;;;5017977;28;20220;-77
2022/04/24 06:31:47;;;;;;;11.47;9.73;;;9.00;99.90;;;;;;5001114;28;20655;-77
2022/04/24 06:34:13;;;;;;;11.23;9.93;;;8.90;99.90;;;;;;5001257;28;20346;-76
2022/04/24 06:36:38;;;;;;;11.63;10.07;;;9.00;99.90;;;;;;5033918;28;20202;-77
2022/04/24 06:39:05;;;;;;;13.13;10.20;;;9.00;99.90;;;;;;5001144;28;20203;-78
2022/04/24 06:41:30;;;;;;;13.07;10.23;;;9.00;99.90;;;;;;5017811;28;20174;-77
2022/04/24 06:43:56;;;;;;;14.10;10.67;;;9.00;99.90;;;;;;5051642;28;20219;-77
2022/04/24 06:46:23;;;;;;;11.83;10.07;;;9.00;99.90;;;;;;5034072;28;20702;-77
2022/04/24 06:48:49;;;;;;;12.47;9.63;;;9.00;99.90;;;;;;5018434;28;20541;-77
2022/04/24 06:51:15;;;;;;;11.67;10.13;;;9.00;99.90;;;;;;5017514;28;20267;-77
2022/04/24 06:53:41;;;;;;;11.13;9.87;;;9.10;99.90;;;;;;5017440;28;20263;-77
2022/04/24 06:56:07;;;;;;;12.03;10.40;;;9.10;99.90;;;;;;5017637;28;20674;-77
2022/04/24 06:58:33;;;;;;;11.63;10.17;;;9.10;99.90;;;;;;5033931;28;20178;-77
2022/04/24 07:00:59;;;;;;;11.67;10.30;;;9.10;99.90;;;;;;5003806;28;20184;-77
2022/04/24 07:03:26;;;;;;;12.10;10.27;;;9.20;99.90;;;;;;5021654;28;20210;-77
2022/04/24 07:06:00;;;;;;;12.37;10.47;;;9.20;99.90;;;;;;5055713;28;20177;-77
2022/04/24 07:08:26;;;;;;;17.47;14.13;;;9.20;99.90;;;;;;5055938;28;20167;-77
2022/04/24 07:10:53;;;;;;;64.37;37.23;;;9.20;99.90;;;;;;5037680;28;20178;-77
2022/04/24 11:27:10;;;;;;;14.60;12.50;;;12.90;99.90;;;;;;5474879;22;20288;-76
2022/04/24 11:29:36;;;;;;;15.87;12.33;;;12.80;99.90;;;;;;5040314;28;20170;-76
2022/04/24 11:32:07;;;;;;;13.43;12.03;;;12.80;99.90;;;;;;5023945;28;20174;-76
2022/04/24 11:34:33;;;;;;;14.37;12.53;;;12.60;99.90;;;;;;5040179;28;20301;-76
2022/04/24 11:37:00;;;;;;;14.97;12.47;;;12.60;99.90;;;;;;5023938;28;20214;-76
2022/04/24 11:39:26;;;;;;;14.60;12.13;;;12.50;99.90;;;;;;5023949;28;20180;-76
2022/04/24 11:41:53;;;;;;;14.03;12.20;;;12.40;99.90;;;;;;5079448;22;20222;-76
2022/04/24 11:50:14;;;;;;;14.37;12.33;;;12.10;99.90;;;;;;5040262;28;20232;-76
2022/04/24 11:52:43;;;;;;;15.87;12.67;;;12.10;99.90;;;;;;5022105;28;20211;-76
2022/04/24 11:55:13;;;;;;;14.63;12.70;;;12.20;99.90;;;;;;5036903;28;20182;-76
2022/04/24 11:57:39;;;;;;;13.77;11.50;;;12.20;99.90;;;;;;5020517;28;20205;-76
2022/04/24 12:00:08;;;;;;;13.57;11.57;;;12.30;99.90;;;;;;5053584;28;20538;-76
2022/04/24 12:02:35;;;;;;;14.67;12.10;;;12.40;99.90;;;;;;5036506;28;20245;-76
2022/04/24 12:05:07;;;;;;;12.70;11.40;;;12.30;99.90;;;;;;5054673;28;20170;-76
2022/04/24 12:07:33;;;;;;;13.10;11.57;;;12.30;99.90;;;;;;5036687;28;20184;-76
2022/04/24 12:10:04;;;;;;;11.87;10.63;;;12.30;99.90;;;;;;5036557;28;20184;-76
2022/04/24 12:12:31;;;;;;;13.77;11.50;;;12.20;99.90;;;;;;5036402;28;20565;-76
2022/04/24 12:14:56;;;;;;;13.57;11.20;;;12.10;99.90;;;;;;5037003;28;20182;-76
2022/04/24 12:17:23;;;;;;;13.07;11.27;;;12.10;99.90;;;;;;5036690;28;20208;-76
2022/04/24 12:19:51;;;;;;;15.07;12.80;;;12.10;99.90;;;;;;5036578;28;20169;-76
2022/04/24 12:22:26;;;;;;;14.50;12.50;;;12.00;99.90;;;;;;5036192;28;20292;-76
2022/04/24 12:24:52;;;;;;;13.57;12.17;;;12.20;99.90;;;;;;5036467;28;20641;-76
2022/04/24 12:27:17;;;;;;;14.20;12.53;;;12.30;99.90;;;;;;5036572;28;20212;-76
2022/04/24 12:29:48;;;;;;;13.73;11.97;;;12.20;99.90;;;;;;5020015;28;20264;-76
2022/04/24 12:32:15;;;;;;;13.47;12.07;;;12.30;99.90;;;;;;5036040;28;20258;-76
2022/04/24 12:34:43;;;;;;;13.20;11.80;;;12.30;99.90;;;;;;5036250;28;20774;-77
2022/04/24 12:37:09;;;;;;;16.13;14.43;;;12.40;99.90;;;;;;5035929;28;20292;-76
2022/04/24 12:39:36;;;;;;;16.83;13.77;;;12.50;99.90;;;;;;5036356;28;20307;-76
2022/04/24 12:42:17;;;;;;;20.23;16.70;;;12.50;99.90;;;;;;5036066;28;20209;-76
2022/04/24 12:44:44;;;;;;;18.60;14.83;;;12.50;99.90;;;;;;5019679;28;20177;-76
2022/04/24 12:47:10;;;;;;;17.67;15.03;;;12.50;99.90;;;;;;5036063;28;20667;-76
2022/04/24 12:49:36;;;;;;;13.17;10.57;;;12.80;99.90;;;;;;5035761;28;20177;-76
2022/04/24 12:52:02;;;;;;;14.17;12.60;;;13.00;99.90;;;;;;5035828;28;20198;-76
2022/04/24 12:54:27;;;;;;;19.20;17.33;;;13.10;99.90;;;;;;5035929;28;20262;-76
2022/04/24 12:56:53;;;;;;;12.87;11.57;;;13.10;99.90;;;;;;5035616;28;20204;-76
2022/04/24 12:59:19;;;;;;;15.90;14.13;;;12.80;99.90;;;;;;5035314;28;20177;-76
2022/04/24 13:01:45;;;;;;;15.83;14.10;;;13.00;99.90;;;;;;5035570;28;20303;-77
2022/04/24 13:04:11;;;;;;;20.43;16.80;;;12.80;99.90;;;;;;5035622;28;20174;-76
2022/04/24 13:06:37;;;;;;;24.53;21.80;;;12.70;99.90;;;;;;5035729;28;20200;-76
2022/04/24 13:09:04;;;;;;;13.97;12.27;;;12.60;99.90;;;;;;5035932;28;20193;-76
2022/04/24 13:11:29;;;;;;;12.93;11.63;;;12.50;99.90;;;;;;5018845;28;20193;-76
2022/04/24 13:13:55;;;;;;;12.77;11.43;;;12.50;99.90;;;;;;5035400;28;20730;-76
2022/04/24 13:19:06;;;;;;;12.30;11.10;;;12.30;99.90;;;;;;5053488;28;20187;-76
2022/04/24 13:21:31;;;;;;;12.77;11.23;;;12.20;99.90;;;;;;5035130;28;20202;-76
2022/04/24 13:23:57;;;;;;;11.93;10.73;;;12.00;99.90;;;;;;5018635;28;20251;-76
2022/04/24 13:26:23;;;;;;;11.70;10.57;;;12.00;99.90;;;;;;5018648;28;20197;-76
2022/04/24 13:28:49;;;;;;;11.50;10.30;;;12.00;99.90;;;;;;5035309;28;20201;-76
2022/04/24 13:31:15;;;;;;;12.93;10.50;;;11.90;99.90;;;;;;5035015;28;20197;-76
2022/04/24 13:33:41;;;;;;;10.93;9.80;;;11.80;99.90;;;;;;5034927;28;20173;-76
2022/04/24 13:36:07;;;;;;;12.33;10.97;;;11.70;99.90;;;;;;5002323;28;20268;-76
2022/04/24 13:38:33;;;;;;;12.10;10.90;;;11.60;99.90;;;;;;5035129;28;20213;-76
2022/04/24 13:41:01;;;;;;;29.27;22.40;;;11.50;99.90;;;;;;5018416;28;20274;-76
2022/04/24 13:43:28;;;;;;;16.10;14.40;;;11.60;99.90;;;;;;5034746;28;20181;-76
2022/04/24 13:45:54;;;;;;;16.07;14.20;;;11.60;99.90;;;;;;5034808;28;20174;-77
2022/04/24 13:48:22;;;;;;;12.07;10.47;;;11.60;99.90;;;;;;5035394;28;20193;-76
2022/04/24 13:50:49;;;;;;;16.70;14.93;;;11.60;99.90;;;;;;5034899;28;20205;-76
2022/04/24 13:53:16;;;;;;;14.37;12.87;;;11.50;99.90;;;;;;5018226;28;20174;-76
2022/04/24 13:55:42;;;;;;;13.77;12.30;;;11.40;99.90;;;;;;5018640;28;20316;-77
2022/04/24 13:58:08;;;;;;;16.23;13.97;;;11.40;99.90;;;;;;5034519;28;20216;-76
2022/04/24 14:00:34;;;;;;;13.50;11.23;;;11.40;99.90;;;;;;5034369;28;20173;-76
2022/04/24 14:03:02;;;;;;;13.47;11.40;;;11.50;99.90;;;;;;5034689;28;20200;-76
2022/04/24 14:05:27;;;;;;;13.03;11.63;;;11.40;99.90;;;;;;5034607;28;20228;-76
2022/04/24 14:07:54;;;;;;;14.77;13.23;;;11.40;99.90;;;;;;5034546;28;20607;-76
2022/04/24 14:10:20;;;;;;;15.70;14.07;;;11.20;99.90;;;;;;5033730;28;20174;-76
2022/04/24 14:12:46;;;;;;;23.17;19.47;;;11.20;99.90;;;;;;5034111;28;20255;-76
2022/04/24 14:15:12;;;;;;;13.07;10.87;;;11.30;99.90;;;;;;5034257;28;20180;-76
2022/04/24 14:17:38;;;;;;;17.80;13.57;;;11.30;99.90;;;;;;5017855;28;20690;-76
2022/04/24 14:20:05;;;;;;;15.60;13.90;;;11.20;99.90;;;;;;5034235;28;20252;-76
2022/04/24 14:22:31;;;;;;;15.70;13.57;;;11.20;99.90;;;;;;5033927;28;20215;-76
2022/04/24 14:24:56;;;;;;;30.83;21.83;;;11.20;99.90;;;;;;5034254;28;20644;-77
2022/04/24 14:27:22;;;;;;;14.70;11.80;;;11.30;99.90;;;;;;5034064;28;20227;-76
2022/04/24 14:29:48;;;;;;;33.83;24.53;;;11.20;99.90;;;;;;5034108;28;20243;-77
2022/04/24 14:32:14;;;;;;;21.03;17.63;;;11.30;99.90;;;;;;5034024;28;20204;-77
2022/04/24 14:34:43;;;;;;;12.60;11.03;;;11.20;99.90;;;;;;5034053;28;20180;-76
2022/04/24 14:37:10;;;;;;;12.30;11.00;;;11.20;99.90;;;;;;5034235;28;20214;-77
2022/04/24 14:39:35;;;;;;;16.23;14.03;;;11.20;99.90;;;;;;5034171;28;20199;-77
2022/04/24 14:42:05;;;;;;;12.90;11.07;;;11.20;99.90;;;;;;5017195;28;20679;-76
2022/04/24 14:44:32;;;;;;;17.00;14.60;;;11.20;99.90;;;;;;5034129;28;20189;-76
2022/04/24 14:58:03;;;;;;;18.13;16.30;;;11.00;99.90;;;;;;5041449;28;20216;-76
2022/04/24 15:00:34;;;;;;;17.57;13.97;;;10.90;99.90;;;;;;5033248;28;20173;-79
2022/04/24 15:03:00;;;;;;;18.63;15.83;;;10.90;99.90;;;;;;5033576;28;20227;-77
2022/04/24 15:05:26;;;;;;;31.20;27.93;;;10.90;99.90;;;;;;5017879;28;20191;-76
2022/04/24 15:07:53;;;;;;;19.00;17.00;;;10.90;99.90;;;;;;5017516;28;20243;-77
2022/04/24 15:10:19;;;;;;;15.37;13.60;;;10.90;99.90;;;;;;5033883;28;20181;-77
2022/04/24 15:12:45;;;;;;;15.23;13.60;;;10.90;99.90;;;;;;5033707;28;20193;-77
2022/04/24 15:15:11;;;;;;;15.77;14.17;;;10.90;99.90;;;;;;5017359;28;20222;-76
2022/04/24 15:17:40;;;;;;;14.00;12.13;;;10.90;99.90;;;;;;5017038;28;20257;-77
2022/04/24 15:20:07;;;;;;;13.13;11.67;;;10.90;99.90;;;;;;5033688;28;20185;-77
2022/04/24 15:22:34;;;;;;;13.27;11.90;;;11.00;99.90;;;;;;5020505;28;20198;-77
2022/04/24 15:24:59;;;;;;;13.37;11.97;;;11.00;99.90;;;;;;5037506;28;20191;-77
2022/04/24 15:27:25;;;;;;;13.13;11.73;;;11.00;99.90;;;;;;5020996;28;20181;-77
2022/04/24 15:29:51;;;;;;;13.03;11.47;;;10.90;99.90;;;;;;5037319;28;20182;-77
2022/04/24 15:32:16;;;;;;;12.60;11.27;;;10.90;99.90;;;;;;5037325;28;20212;-77
2022/04/24 15:34:43;;;;;;;17.50;15.70;;;11.00;99.90;;;;;;5037546;28;20600;-77
2022/04/24 15:37:09;;;;;;;19.17;17.17;;;10.90;99.90;;;;;;5020976;28;20219;-77
2022/04/24 15:39:35;;;;;;;15.60;14.00;;;10.80;99.90;;;;;;5037175;28;20181;-77
2022/04/24 15:42:01;;;;;;;16.60;14.80;;;10.80;99.90;;;;;;5020330;28;20223;-77
2022/04/24 15:44:27;;;;;;;18.13;16.07;;;10.80;99.90;;;;;;5037160;28;20175;-77
2022/04/24 15:46:53;;;;;;;13.17;11.53;;;10.80;99.90;;;;;;5036993;28;20231;-77
2022/04/24 15:49:18;;;;;;;13.77;12.23;;;10.70;99.90;;;;;;5053752;28;20185;-77
2022/04/24 15:51:45;;;;;;;13.10;11.70;;;10.80;99.90;;;;;;5036943;28;20197;-77
2022/04/24 15:54:11;;;;;;;18.60;16.00;;;10.80;99.90;;;;;;5053532;28;20177;-77
2022/04/24 15:56:37;;;;;;;16.20;13.97;;;10.80;99.90;;;;;;5036853;28;20188;-77
2022/04/24 15:59:02;;;;;;;13.27;11.93;;;10.80;99.90;;;;;;5020321;28;20177;-76
2022/04/24 16:01:29;;;;;;;13.17;11.80;;;10.70;99.90;;;;;;5036809;28;20337;-77
2022/04/24 16:03:56;;;;;;;15.87;14.37;;;10.70;99.90;;;;;;5020215;28;20208;-76
2022/04/24 16:06:23;;;;;;;22.70;20.47;;;10.70;99.90;;;;;;5020397;28;20174;-76
2022/04/24 16:08:49;;;;;;;18.57;16.57;;;10.80;99.90;;;;;;5036710;28;20571;-77
2022/04/24 16:11:15;;;;;;;18.23;15.63;;;10.80;99.90;;;;;;5036596;28;20198;-76
2022/04/24 16:13:41;;;;;;;17.67;15.97;;;10.80;99.90;;;;;;5036218;28;20262;-76
2022/04/24 16:16:07;;;;;;;12.50;11.17;;;10.80;99.90;;;;;;5036834;28;20188;-77
2022/04/24 16:18:35;;;;;;;15.30;13.70;;;10.70;99.90;;;;;;5036742;28;20211;-77
2022/04/24 16:21:02;;;;;;;16.53;14.83;;;10.80;99.90;;;;;;5020240;28;20712;-76
2022/04/24 16:23:27;;;;;;;13.00;11.63;;;10.80;99.90;;;;;;5036237;28;20244;-77
2022/04/24 16:25:55;;;;;;;18.30;16.43;;;10.90;99.90;;;;;;5036348;28;20228;-77
2022/04/24 16:28:21;;;;;;;14.40;12.90;;;10.90;99.90;;;;;;5043344;28;20201;-77
2022/04/24 16:30:47;;;;;;;11.97;10.70;;;10.90;99.90;;;;;;5019624;28;20275;-76
2022/04/24 16:33:12;;;;;;;17.87;15.97;;;10.90;99.90;;;;;;5052592;28;20177;-77
2022/04/24 16:35:38;;;;;;;12.53;10.97;;;10.80;99.90;;;;;;5019874;28;20192;-77
2022/04/24 16:38:04;;;;;;;13.47;12.00;;;10.90;99.90;;;;;;5035860;28;20208;-77
2022/04/24 16:40:29;;;;;;;12.57;10.30;;;10.90;99.90;;;;;;5035860;28;20243;-77
2022/04/24 16:42:55;;;;;;;15.60;14.00;;;10.90;99.90;;;;;;5019256;28;20240;-77
2022/04/24 16:45:23;;;;;;;12.00;10.80;;;10.90;99.90;;;;;;5019522;28;20178;-77
2022/04/24 16:47:48;;;;;;;12.73;11.43;;;10.90;99.90;;;;;;5035886;28;20186;-77
2022/04/24 16:58:44;;;;;;;12.50;11.20;;;10.90;99.90;;;;;;5019427;28;20272;-77
2022/04/24 17:01:15;;;;;;;14.03;12.47;;;10.90;99.90;;;;;;5005038;28;20680;-77
2022/04/24 17:03:41;;;;;;;16.53;12.47;;;10.80;99.90;;;;;;5015974;28;20178;-78
2022/04/24 17:06:06;;;;;;;14.40;12.97;;;10.70;99.90;;;;;;4999779;28;20182;-77
2022/04/24 17:08:33;;;;;;;15.03;12.87;;;10.70;99.90;;;;;;4999676;28;20210;-77
2022/04/24 17:10:59;;;;;;;13.90;12.50;;;10.70;99.90;;;;;;5015967;28;20212;-77
2022/04/24 17:13:25;;;;;;;15.13;13.57;;;10.70;99.90;;;;;;5015939;28;20182;-80
2022/04/24 17:15:52;;;;;;;15.00;13.37;;;10.60;99.90;;;;;;4983595;28;20612;-77
2022/04/24 17:18:18;;;;;;;12.23;10.93;;;10.70;99.90;;;;;;5015558;28;20284;-77
2022/04/24 17:20:45;;;;;;;16.10;14.17;;;10.70;99.90;;;;;;4999552;28;20229;-76
2022/04/24 17:23:11;;;;;;;11.20;10.10;;;10.60;99.90;;;;;;5030946;28;20181;-76